sensor_id;sensor_type;location;lat;lon;timestamp;temperature;humidity
16479;DHT22;8350;52.316;10.530;2023-05-10T00:01:35;14.30;1.00
16479;DHT22;8350;52.316;10.530;2023-05-10T00:04:02;14.30;1.00
16479;DHT22;8350;52.316;10.530;2023-05-10T00:06:29;14.20;1.00
16479;DHT22;8350;52.316;10.530;2023-05-10T00:08:59;14.20;1.00
16479;DHT22;8350;52.316;10.530;2023-05-10T00:11:26;14.10;1.00
16479;DHT22;8350;52.316;10.530;2023-05-10T00:13:53;14.10;1.00
16479;DHT22;8350;52.316;10.530;2023-05-10T00:16:20;14.00;99.90
16479;DHT22;8350;52.316;10.530;2023-05-10T00:18:48;13.90;99.90
16479;DHT22;8350;52.316;10.530;2023-05-10T00:21:15;13.90;99.90
16479;DHT22;8350;52.316;10.530;2023-05-10T00:23:42;13.80;99.90
16479;DHT22;8350;52.316;10.530;2023-05-10T00:26:11;13.80;99.90
16479;DHT22;8350;52.316;10.530;2023-05-10T00:28:38;13.80;99.90
16479;DHT22;8350;52.316;10.530;2023-05-10T00:31:05;13.70;99.90
16479;DHT22;8350;52.316;10.530;2023-05-10T00:33:31;13.60;99.90
16479;DHT22;8350;52.316;10.530;2023-05-10T00:35:58;13.50;1.00
16479;DHT22;8350;52.316;10.530;2023-05-10T00:38:26;13.50;1.00
16479;DHT22;8350;52.316;10.530;2023-05-10T00:40:53;13.50;1.00
16479;DHT22;8350;52.316;10.530;2023-05-10T00:43:21;13.40;1.00
16479;DHT22;8350;52.316;10.530;2023-05-10T00:45:48;13.40;1.00
16479;DHT22;8350;52.316;10.530;2023-05-10T00:48:18;13.30;1.00
16479;DHT22;8350;52.316;10.530;2023-05-10T00:50:45;13.30;1.00
16479;DHT22;8350;52.316;10.530;2023-05-10T00:53:12;13.30;1.00
16479;DHT22;8350;52.316;10.530;2023-05-10T00:55:39;13.30;1.00
16479;DHT22;8350;52.316;10.530;2023-05-10T00:58:06;13.30;1.00
16479;DHT22;8350;52.316;10.530;2023-05-10T01:00:35;13.30;1.00
16479;DHT22;8350;52.316;10.530;2023-05-10T01:03:04;13.30;1.00
16479;DHT22;8350;52.316;10.530;2023-05-10T01:05:31;13.20;1.00
16479;DHT22;8350;52.316;10.530;2023-05-10T01:07:58;13.20;1.00
16479;DHT22;8350;52.316;10.530;2023-05-10T01:10:25;13.20;1.00
16479;DHT22;8350;52.316;10.530;2023-05-10T01:12:53;13.00;1.00
16479;DHT22;8350;52.316;10.530;2023-05-10T01:15:21;13.00;1.00
16479;DHT22;8350;52.316;10.530;2023-05-10T01:17:51;12.90;1.00
16479;DHT22;8350;52.316;10.530;2023-05-10T01:20:18;12.90;1.00
16479;DHT22;8350;52.316;10.530;2023-05-10T01:23:10;12.90;1.00
16479;DHT22;8350;52.316;10.530;2023-05-10T01:28:43;12.80;1.00
16479;DHT22;8350;52.316;10.530;2023-05-10T01:31:26;12.80;1.00
16479;DHT22;8350;52.316;10.530;2023-05-10T01:34:01;12.70;1.00
16479;DHT22;8350;52.316;10.530;2023-05-10T01:36:31;12.70;1.00
16479;DHT22;8350;52.316;10.530;2023-05-10T01:39:02;12.70;1.00
16479;DHT22;8350;52.316;10.530;2023-05-10T01:41:37;12.60;1.00
16479;DHT22;8350;52.316;10.530;2023-05-10T01:44:10;12.60;4.00
16479;DHT22;8350;52.316;10.530;2023-05-10T01:46:39;12.60;10.00
16479;DHT22;8350;52.316;10.530;2023-05-10T01:49:10;12.50;49.50
16479;DHT22;8350;52.316;10.530;2023-05-10T01:51:44;12.40;69.70
16479;DHT22;8350;52.316;10.530;2023-05-10T01:54:13;12.50;99.90
16479;DHT22;8350;52.316;10.530;2023-05-10T01:56:41;12.40;71.50
16479;DHT22;8350;52.316;10.530;2023-05-10T01:59:13;12.40;99.90
16479;DHT22;8350;52.316;10.530;2023-05-10T02:01:45;12.30;99.90
16479;DHT22;8350;52.316;10.530;2023-05-10T02:04:16;12.30;99.90
16479;DHT22;8350;52.316;10.530;2023-05-10T02:06:45;12.30;99.90
16479;DHT22;8350;52.316;10.530;2023-05-10T02:09:16;12.30;99.90
16479;DHT22;8350;52.316;10.530;2023-05-10T02:11:44;12.30;99.90
16479;DHT22;8350;52.316;10.530;2023-05-10T02:14:11;12.20;99.90
16479;DHT22;8350;52.316;10.530;2023-05-10T02:16:39;12.20;99.90
16479;DHT22;8350;52.316;10.530;2023-05-10T02:19:07;12.20;99.90
16479;DHT22;8350;52.316;10.530;2023-05-10T02:21:43;12.20;99.90
16479;DHT22;8350;52.316;10.530;2023-05-10T02:24:11;12.10;99.90
16479;DHT22;8350;52.316;10.530;2023-05-10T02:26:39;12.10;99.90
16479;DHT22;8350;52.316;10.530;2023-05-10T02:29:07;12.10;99.90
16479;DHT22;8350;52.316;10.530;2023-05-10T02:31:35;12.10;99.90
16479;DHT22;8350;52.316;10.530;2023-05-10T02:34:06;12.10;99.90
16479;DHT22;8350;52.316;10.530;2023-05-10T02:36:33;12.10;99.90
16479;DHT22;8350;52.316;10.530;2023-05-10T02:39:02;12.10;99.90
16479;DHT22;8350;52.316;10.530;2023-05-10T02:41:33;12.10;99.90
16479;DHT22;8350;52.316;10.530;2023-05-10T02:44:01;12.10;99.90
16479;DHT22;8350;52.316;10.530;2023-05-10T02:46:29;12.00;99.90
16479;DHT22;8350;52.316;10.530;2023-05-10T02:48:57;12.10;99.90
16479;DHT22;8350;52.316;10.530;2023-05-10T02:51:26;12.10;99.90
16479;DHT22;8350;52.316;10.530;2023-05-10T02:53:57;12.10;99.90
16479;DHT22;8350;52.316;10.530;2023-05-10T02:56:33;12.10;99.90
16479;DHT22;8350;52.316;10.530;2023-05-10T02:59:03;12.10;99.90
16479;DHT22;8350;52.316;10.530;2023-05-10T03:01:32;12.10;99.90
16479;DHT22;8350;52.316;10.530;2023-05-10T03:04:00;12.10;99.90
16479;DHT22;8350;52.316;10.530;2023-05-10T03:06:27;12.10;99.90
16479;DHT22;8350;52.316;10.530;2023-05-10T03:08:56;12.10;99.90
16479;DHT22;8350;52.316;10.530;2023-05-10T03:11:43;12.10;99.90
16479;DHT22;8350;52.316;10.530;2023-05-10T03:14:21;12.00;99.90
16479;DHT22;8350;52.316;10.530;2023-05-10T03:16:54;12.00;99.90
16479;DHT22;8350;52.316;10.530;2023-05-10T03:19:26;12.00;99.90
16479;DHT22;8350;52.316;10.530;2023-05-10T03:21:56;12.00;99.90
16479;DHT22;8350;52.316;10.530;2023-05-10T03:24:28;12.00;99.90
16479;DHT22;8350;52.316;10.530;2023-05-10T03:26:59;12.00;99.90
16479;DHT22;8350;52.316;10.530;2023-05-10T03:29:28;12.00;99.90
16479;DHT22;8350;52.316;10.530;2023-05-10T03:31:57;12.10;99.90
16479;DHT22;8350;52.316;10.530;2023-05-10T03:34:24;12.10;99.90
16479;DHT22;8350;52.316;10.530;2023-05-10T03:36:52;12.10;99.90
16479;DHT22;8350;52.316;10.530;2023-05-10T03:39:19;12.10;99.90
16479;DHT22;8350;52.316;10.530;2023-05-10T03:41:46;12.10;99.90
16479;DHT22;8350;52.316;10.530;2023-05-10T03:44:15;12.10;99.90
16479;DHT22;8350;52.316;10.530;2023-05-10T03:46:45;12.20;99.90
16479;DHT22;8350;52.316;10.530;2023-05-10T03:49:12;12.20;99.90
16479;DHT22;8350;52.316;10.530;2023-05-10T03:51:39;12.20;99.90
16479;DHT22;8350;52.316;10.530;2023-05-10T03:54:06;12.20;99.90
16479;DHT22;8350;52.316;10.530;2023-05-10T03:56:33;12.20;99.90
16479;DHT22;8350;52.316;10.530;2023-05-10T03:59:00;12.20;99.90
16479;DHT22;8350;52.316;10.530;2023-05-10T04:01:28;12.20;99.90
16479;DHT22;8350;52.316;10.530;2023-05-10T04:03:55;12.30;99.90
16479;DHT22;8350;52.316;10.530;2023-05-10T04:06:22;12.50;99.90
16479;DHT22;8350;52.316;10.530;2023-05-10T04:08:49;12.80;99.90
16479;DHT22;8350;52.316;10.530;2023-05-10T04:11:16;13.00;99.90
16479;DHT22;8350;52.316;10.530;2023-05-10T04:13:43;13.10;99.90
16479;DHT22;8350;52.316;10.530;2023-05-10T04:16:10;13.10;91.30
16479;DHT22;8350;52.316;10.530;2023-05-10T04:18:39;13.00;80.50
16479;DHT22;8350;52.316;10.530;2023-05-10T04:21:11;12.80;99.90
16479;DHT22;8350;52.316;10.530;2023-05-10T04:23:38;12.70;99.90
16479;DHT22;8350;52.316;10.530;2023-05-10T04:26:05;12.70;99.90
16479;DHT22;8350;52.316;10.530;2023-05-10T04:28:33;12.70;99.90
16479;DHT22;8350;52.316;10.530;2023-05-10T04:31:03;12.70;99.90
16479;DHT22;8350;52.316;10.530;2023-05-10T04:33:31;12.70;99.90
16479;DHT22;8350;52.316;10.530;2023-05-10T04:36:00;12.80;99.90
16479;DHT22;8350;52.316;10.530;2023-05-10T04:38:27;12.90;99.90
16479;DHT22;8350;52.316;10.530;2023-05-10T04:40:54;12.90;99.90
16479;DHT22;8350;52.316;10.530;2023-05-10T04:43:21;13.00;99.90
16479;DHT22;8350;52.316;10.530;2023-05-10T04:45:48;13.00;99.90
16479;DHT22;8350;52.316;10.530;2023-05-10T04:48:15;12.90;99.90
16479;DHT22;8350;52.316;10.530;2023-05-10T04:50:42;12.90;99.90
16479;DHT22;8350;52.316;10.530;2023-05-10T04:53:10;12.90;99.90
16479;DHT22;8350;52.316;10.530;2023-05-10T04:55:38;12.80;99.90
16479;DHT22;8350;52.316;10.530;2023-05-10T04:58:05;12.80;99.90
16479;DHT22;8350;52.316;10.530;2023-05-10T05:00:33;12.80;99.90
16479;DHT22;8350;52.316;10.530;2023-05-10T05:03:00;12.80;99.90
16479;DHT22;8350;52.316;10.530;2023-05-10T05:05:27;12.70;99.90
16479;DHT22;8350;52.316;10.530;2023-05-10T05:07:54;12.80;99.90
16479;DHT22;8350;52.316;10.530;2023-05-10T05:10:23;12.70;99.90
16479;DHT22;8350;52.316;10.530;2023-05-10T05:12:50;12.70;99.90
16479;DHT22;8350;52.316;10.530;2023-05-10T05:15:17;12.70;99.90
16479;DHT22;8350;52.316;10.530;2023-05-10T05:17:44;12.70;99.90
16479;DHT22;8350;52.316;10.530;2023-05-10T05:20:11;12.70;99.90
16479;DHT22;8350;52.316;10.530;2023-05-10T05:22:38;12.80;99.90
16479;DHT22;8350;52.316;10.530;2023-05-10T05:25:09;12.80;99.90
16479;DHT22;8350;52.316;10.530;2023-05-10T05:27:39;12.80;99.90
16479;DHT22;8350;52.316;10.530;2023-05-10T05:30:07;12.80;99.90
16479;DHT22;8350;52.316;10.530;2023-05-10T05:32:34;12.70;99.90
16479;DHT22;8350;52.316;10.530;2023-05-10T05:35:04;12.80;1.00
16479;DHT22;8350;52.316;10.530;2023-05-10T05:37:31;12.70;1.00
16479;DHT22;8350;52.316;10.530;2023-05-10T05:39:58;12.80;1.00
16479;DHT22;8350;52.316;10.530;2023-05-10T05:42:27;12.80;99.90
16479;DHT22;8350;52.316;10.530;2023-05-10T05:44:55;12.90;99.90
16479;DHT22;8350;52.316;10.530;2023-05-10T05:47:22;12.90;99.90
16479;DHT22;8350;52.316;10.530;2023-05-10T05:49:49;12.90;99.90
16479;DHT22;8350;52.316;10.530;2023-05-10T05:52:16;12.80;99.90
16479;DHT22;8350;52.316;10.530;2023-05-10T05:54:43;12.80;99.90
16479;DHT22;8350;52.316;10.530;2023-05-10T05:57:11;12.80;1.00
16479;DHT22;8350;52.316;10.530;2023-05-10T05:59:38;12.80;99.90
16479;DHT22;8350;52.316;10.530;2023-05-10T06:02:09;12.80;99.90
16479;DHT22;8350;52.316;10.530;2023-05-10T06:04:36;12.80;1.00
16479;DHT22;8350;52.316;10.530;2023-05-10T06:07:03;12.80;1.00
16479;DHT22;8350;52.316;10.530;2023-05-10T06:09:30;12.80;1.00
16479;DHT22;8350;52.316;10.530;2023-05-10T06:11:57;12.80;1.00
16479;DHT22;8350;52.316;10.530;2023-05-10T06:14:24;12.80;1.00
16479;DHT22;8350;52.316;10.530;2023-05-10T06:16:51;12.80;1.00
16479;DHT22;8350;52.316;10.530;2023-05-10T06:19:20;12.80;1.00
16479;DHT22;8350;52.316;10.530;2023-05-10T06:21:47;12.80;1.00
16479;DHT22;8350;52.316;10.530;2023-05-10T06:24:16;12.90;1.00
16479;DHT22;8350;52.316;10.530;2023-05-10T06:26:43;12.90;1.00
16479;DHT22;8350;52.316;10.530;2023-05-10T06:29:10;12.90;1.00
16479;DHT22;8350;52.316;10.530;2023-05-10T06:31:37;12.80;1.00
16479;DHT22;8350;52.316;10.530;2023-05-10T06:34:04;12.90;1.00
16479;DHT22;8350;52.316;10.530;2023-05-10T06:36:34;13.10;1.00
16479;DHT22;8350;52.316;10.530;2023-05-10T06:39:01;13.10;1.00
16479;DHT22;8350;52.316;10.530;2023-05-10T06:41:29;13.20;1.00
16479;DHT22;8350;52.316;10.530;2023-05-10T06:43:55;13.30;1.00
16479;DHT22;8350;52.316;10.530;2023-05-10T06:46:22;13.30;1.00
16479;DHT22;8350;52.316;10.530;2023-05-10T06:48:49;13.40;1.00
16479;DHT22;8350;52.316;10.530;2023-05-10T06:51:16;13.40;1.00
16479;DHT22;8350;52.316;10.530;2023-05-10T06:53:45;13.40;1.00
16479;DHT22;8350;52.316;10.530;2023-05-10T06:56:12;13.30;1.00
16479;DHT22;8350;52.316;10.530;2023-05-10T06:58:39;13.30;1.00
16479;DHT22;8350;52.316;10.530;2023-05-10T07:01:06;13.20;1.00
16479;DHT22;8350;52.316;10.530;2023-05-10T07:03:33;13.30;1.00
16479;DHT22;8350;52.316;10.530;2023-05-10T07:06:01;13.30;1.00
16479;DHT22;8350;52.316;10.530;2023-05-10T07:08:29;13.20;1.00
16479;DHT22;8350;52.316;10.530;2023-05-10T07:11:01;13.20;1.00
16479;DHT22;8350;52.316;10.530;2023-05-10T07:13:29;13.20;1.00
16479;DHT22;8350;52.316;10.530;2023-05-10T07:15:56;13.10;1.00
16479;DHT22;8350;52.316;10.530;2023-05-10T07:18:23;13.10;1.00
16479;DHT22;8350;52.316;10.530;2023-05-10T07:20:50;13.10;1.00
16479;DHT22;8350;52.316;10.530;2023-05-10T07:23:17;13.10;1.00
16479;DHT22;8350;52.316;10.530;2023-05-10T07:25:45;13.10;1.00
16479;DHT22;8350;52.316;10.530;2023-05-10T07:28:15;13.10;1.00
16479;DHT22;8350;52.316;10.530;2023-05-10T07:30:42;13.20;1.00
16479;DHT22;8350;52.316;10.530;2023-05-10T07:33:10;13.30;1.00
16479;DHT22;8350;52.316;10.530;2023-05-10T07:35:37;13.40;1.00
16479;DHT22;8350;52.316;10.530;2023-05-10T07:38:04;13.40;1.00
16479;DHT22;8350;52.316;10.530;2023-05-10T07:40:31;13.40;1.00
16479;DHT22;8350;52.316;10.530;2023-05-10T07:42:58;13.50;1.00
16479;DHT22;8350;52.316;10.530;2023-05-10T07:45:33;13.50;1.00
16479;DHT22;8350;52.316;10.530;2023-05-10T07:48:00;13.50;1.00
16479;DHT22;8350;52.316;10.530;2023-05-10T07:50:27;13.50;3.50
16479;DHT22;8350;52.316;10.530;2023-05-10T07:52:53;13.60;5.30
16479;DHT22;8350;52.316;10.530;2023-05-10T07:55:21;13.70;17.40
16479;DHT22;8350;52.316;10.530;2023-05-10T07:57:47;13.70;29.90
16479;DHT22;8350;52.316;10.530;2023-05-10T08:00:17;13.70;1.00
16479;DHT22;8350;52.316;10.530;2023-05-10T08:02:46;13.60;25.80
16479;DHT22;8350;52.316;10.530;2023-05-10T08:05:14;13.70;29.50
16479;DHT22;8350;52.316;10.530;2023-05-10T08:07:40;13.70;1.00
16479;DHT22;8350;52.316;10.530;2023-05-10T08:10:09;13.80;20.40
16479;DHT22;8350;52.316;10.530;2023-05-10T08:12:36;13.70;88.20
16479;DHT22;8350;52.316;10.530;2023-05-10T08:15:05;13.80;99.90
16479;DHT22;8350;52.316;10.530;2023-05-10T08:17:32;13.80;99.90
16479;DHT22;8350;52.316;10.530;2023-05-10T08:20:00;13.80;99.90
16479;DHT22;8350;52.316;10.530;2023-05-10T08:22:27;13.90;99.90
16479;DHT22;8350;52.316;10.530;2023-05-10T08:24:54;14.00;99.90
16479;DHT22;8350;52.316;10.530;2023-05-10T08:27:21;13.90;99.90
16479;DHT22;8350;52.316;10.530;2023-05-10T08:29:48;13.90;99.90
16479;DHT22;8350;52.316;10.530;2023-05-10T08:32:15;13.80;99.90
16479;DHT22;8350;52.316;10.530;2023-05-10T08:34:44;13.70;99.90
16479;DHT22;8350;52.316;10.530;2023-05-10T08:37:12;13.80;99.90
16479;DHT22;8350;52.316;10.530;2023-05-10T08:39:39;13.80;99.90
16479;DHT22;8350;52.316;10.530;2023-05-10T08:42:06;13.70;99.90
16479;DHT22;8350;52.316;10.530;2023-05-10T08:44:35;13.90;99.90
16479;DHT22;8350;52.316;10.530;2023-05-10T08:47:05;13.90;99.90
16479;DHT22;8350;52.316;10.530;2023-05-10T08:49:32;13.80;99.90
16479;DHT22;8350;52.316;10.530;2023-05-10T08:52:03;13.90;99.90
16479;DHT22;8350;52.316;10.530;2023-05-10T08:54:33;13.90;99.90
16479;DHT22;8350;52.316;10.530;2023-05-10T08:57:00;13.90;99.90
16479;DHT22;8350;52.316;10.530;2023-05-10T08:59:27;14.00;99.90
16479;DHT22;8350;52.316;10.530;2023-05-10T09:01:57;14.00;99.90
16479;DHT22;8350;52.316;10.530;2023-05-10T09:04:24;14.10;99.90
16479;DHT22;8350;52.316;10.530;2023-05-10T09:06:53;14.10;99.90
16479;DHT22;8350;52.316;10.530;2023-05-10T09:09:21;14.10;99.90
16479;DHT22;8350;52.316;10.530;2023-05-10T09:11:50;14.10;99.90
16479;DHT22;8350;52.316;10.530;2023-05-10T09:14:18;14.20;99.90
16479;DHT22;8350;52.316;10.530;2023-05-10T09:16:45;14.20;99.90
16479;DHT22;8350;52.316;10.530;2023-05-10T09:19:13;14.30;99.90
16479;DHT22;8350;52.316;10.530;2023-05-10T09:21:40;14.30;99.90
16479;DHT22;8350;52.316;10.530;2023-05-10T09:24:08;14.40;99.90
16479;DHT22;8350;52.316;10.530;2023-05-10T09:26:35;14.50;99.90
16479;DHT22;8350;52.316;10.530;2023-05-10T09:29:03;14.50;99.90
16479;DHT22;8350;52.316;10.530;2023-05-10T09:31:47;14.60;99.90
16479;DHT22;8350;52.316;10.530;2023-05-10T09:34:17;14.60;99.90
16479;DHT22;8350;52.316;10.530;2023-05-10T09:36:55;14.60;99.90
16479;DHT22;8350;52.316;10.530;2023-05-10T09:39:30;14.70;99.90
16479;DHT22;8350;52.316;10.530;2023-05-10T09:41:58;14.70;99.90
16479;DHT22;8350;52.316;10.530;2023-05-10T09:44:27;14.60;99.90
16479;DHT22;8350;52.316;10.530;2023-05-10T09:46:56;14.60;99.90
16479;DHT22;8350;52.316;10.530;2023-05-10T09:49:24;14.70;99.90
16479;DHT22;8350;52.316;10.530;2023-05-10T09:52:00;14.70;99.90
16479;DHT22;8350;52.316;10.530;2023-05-10T09:54:28;14.70;99.90
16479;DHT22;8350;52.316;10.530;2023-05-10T09:56:55;14.80;99.90
16479;DHT22;8350;52.316;10.530;2023-05-10T09:59:27;14.80;99.90
16479;DHT22;8350;52.316;10.530;2023-05-10T10:01:56;14.80;99.90
16479;DHT22;8350;52.316;10.530;2023-05-10T10:04:23;14.80;99.90
16479;DHT22;8350;52.316;10.530;2023-05-10T10:07:02;14.70;99.90
16479;DHT22;8350;52.316;10.530;2023-05-10T10:09:29;14.60;99.90
16479;DHT22;8350;52.316;10.530;2023-05-10T10:11:56;14.60;99.90
16479;DHT22;8350;52.316;10.530;2023-05-10T10:14:23;14.60;99.90
16479;DHT22;8350;52.316;10.530;2023-05-10T10:16:53;14.70;99.90
16479;DHT22;8350;52.316;10.530;2023-05-10T10:19:21;14.70;99.90
16479;DHT22;8350;52.316;10.530;2023-05-10T10:21:49;14.80;99.90
16479;DHT22;8350;52.316;10.530;2023-05-10T10:24:16;14.80;99.90
16479;DHT22;8350;52.316;10.530;2023-05-10T10:26:44;14.80;99.90
16479;DHT22;8350;52.316;10.530;2023-05-10T10:29:21;14.80;99.90
16479;DHT22;8350;52.316;10.530;2023-05-10T10:31:57;14.80;99.90
16479;DHT22;8350;52.316;10.530;2023-05-10T10:34:29;14.80;99.90
16479;DHT22;8350;52.316;10.530;2023-05-10T10:36:57;14.90;99.90
16479;DHT22;8350;52.316;10.530;2023-05-10T10:39:24;14.90;99.90
16479;DHT22;8350;52.316;10.530;2023-05-10T10:41:53;15.10;99.90
16479;DHT22;8350;52.316;10.530;2023-05-10T10:44:34;15.10;99.90
16479;DHT22;8350;52.316;10.530;2023-05-10T10:47:10;14.80;99.90
16479;DHT22;8350;52.316;10.530;2023-05-10T10:49:51;14.60;99.90
16479;DHT22;8350;52.316;10.530;2023-05-10T10:52:26;14.40;99.90
16479;DHT22;8350;52.316;10.530;2023-05-10T10:54:59;14.40;99.90
16479;DHT22;8350;52.316;10.530;2023-05-10T10:57:27;14.30;99.90
16479;DHT22;8350;52.316;10.530;2023-05-10T11:00:21;14.40;99.90
16479;DHT22;8350;52.316;10.530;2023-05-10T11:02:51;14.50;99.90
16479;DHT22;8350;52.316;10.530;2023-05-10T11:05:39;14.50;99.90
16479;DHT22;8350;52.316;10.530;2023-05-10T11:08:15;14.50;99.90
16479;DHT22;8350;52.316;10.530;2023-05-10T11:10:51;14.60;99.90
16479;DHT22;8350;52.316;10.530;2023-05-10T11:13:27;14.70;99.90
16479;DHT22;8350;52.316;10.530;2023-05-10T11:15:55;14.70;99.90
16479;DHT22;8350;52.316;10.530;2023-05-10T11:18:26;14.70;99.90
16479;DHT22;8350;52.316;10.530;2023-05-10T11:20:57;14.80;99.90
16479;DHT22;8350;52.316;10.530;2023-05-10T11:23:30;14.70;99.90
16479;DHT22;8350;52.316;10.530;2023-05-10T11:26:00;14.60;99.90
16479;DHT22;8350;52.316;10.530;2023-05-10T11:28:30;14.80;99.90
16479;DHT22;8350;52.316;10.530;2023-05-10T11:30:57;14.70;99.90
16479;DHT22;8350;52.316;10.530;2023-05-10T11:33:26;14.60;99.90
16479;DHT22;8350;52.316;10.530;2023-05-10T11:35:52;14.70;99.90
16479;DHT22;8350;52.316;10.530;2023-05-10T11:38:19;14.80;99.90
16479;DHT22;8350;52.316;10.530;2023-05-10T11:40:47;14.80;99.90
16479;DHT22;8350;52.316;10.530;2023-05-10T11:43:18;14.90;99.90
16479;DHT22;8350;52.316;10.530;2023-05-10T11:45:45;15.00;99.90
16479;DHT22;8350;52.316;10.530;2023-05-10T11:48:12;14.90;99.90
16479;DHT22;8350;52.316;10.530;2023-05-10T11:50:40;14.90;99.90
16479;DHT22;8350;52.316;10.530;2023-05-10T11:53:07;15.10;99.90
16479;DHT22;8350;52.316;10.530;2023-05-10T11:55:34;15.10;99.90
16479;DHT22;8350;52.316;10.530;2023-05-10T11:58:02;15.20;99.90
16479;DHT22;8350;52.316;10.530;2023-05-10T12:00:29;15.20;99.90
16479;DHT22;8350;52.316;10.530;2023-05-10T12:03:00;15.30;99.90
16479;DHT22;8350;52.316;10.530;2023-05-10T12:05:28;15.30;99.90
16479;DHT22;8350;52.316;10.530;2023-05-10T12:08:13;15.40;99.90
16479;DHT22;8350;52.316;10.530;2023-05-10T12:10:40;15.50;99.90
16479;DHT22;8350;52.316;10.530;2023-05-10T12:13:11;15.80;99.90
16479;DHT22;8350;52.316;10.530;2023-05-10T12:15:38;15.90;99.90
16479;DHT22;8350;52.316;10.530;2023-05-10T12:18:12;15.90;99.90
16479;DHT22;8350;52.316;10.530;2023-05-10T12:20:40;16.00;77.00
16479;DHT22;8350;52.316;10.530;2023-05-10T12:23:09;16.30;83.20
16479;DHT22;8350;52.316;10.530;2023-05-10T12:25:39;16.50;46.90
16479;DHT22;8350;52.316;10.530;2023-05-10T12:28:08;16.60;31.80
16479;DHT22;8350;52.316;10.530;2023-05-10T12:30:36;16.60;1.00
16479;DHT22;8350;52.316;10.530;2023-05-10T12:33:07;16.40;1.00
16479;DHT22;8350;52.316;10.530;2023-05-10T12:35:44;16.20;11.10
16479;DHT22;8350;52.316;10.530;2023-05-10T12:38:28;16.40;23.00
16479;DHT22;8350;52.316;10.530;2023-05-10T12:40:58;16.60;1.00
16479;DHT22;8350;52.316;10.530;2023-05-10T12:43:25;16.80;1.00
16479;DHT22;8350;52.316;10.530;2023-05-10T12:45:52;17.00;1.00
16479;DHT22;8350;52.316;10.530;2023-05-10T12:48:19;17.20;1.00
16479;DHT22;8350;52.316;10.530;2023-05-10T12:50:46;17.20;1.00
16479;DHT22;8350;52.316;10.530;2023-05-10T12:53:16;17.30;1.00
16479;DHT22;8350;52.316;10.530;2023-05-10T12:55:43;17.30;1.00
16479;DHT22;8350;52.316;10.530;2023-05-10T12:58:12;17.50;1.00
16479;DHT22;8350;52.316;10.530;2023-05-10T13:00:38;17.80;1.00
16479;DHT22;8350;52.316;10.530;2023-05-10T13:03:05;17.80;1.00
16479;DHT22;8350;52.316;10.530;2023-05-10T13:05:36;17.90;1.00
16479;DHT22;8350;52.316;10.530;2023-05-10T13:08:03;17.90;1.00
16479;DHT22;8350;52.316;10.530;2023-05-10T13:10:30;17.80;1.00
16479;DHT22;8350;52.316;10.530;2023-05-10T13:12:58;17.80;1.00
16479;DHT22;8350;52.316;10.530;2023-05-10T13:15:26;17.90;1.00
16479;DHT22;8350;52.316;10.530;2023-05-10T13:17:54;17.90;1.00
16479;DHT22;8350;52.316;10.530;2023-05-10T13:20:21;18.00;1.00
16479;DHT22;8350;52.316;10.530;2023-05-10T13:22:48;18.20;1.00
16479;DHT22;8350;52.316;10.530;2023-05-10T13:25:15;18.30;1.00
16479;DHT22;8350;52.316;10.530;2023-05-10T13:27:42;18.50;1.00
16479;DHT22;8350;52.316;10.530;2023-05-10T13:30:09;18.60;1.00
16479;DHT22;8350;52.316;10.530;2023-05-10T13:32:38;18.60;1.00
16479;DHT22;8350;52.316;10.530;2023-05-10T13:35:07;18.30;1.00
16479;DHT22;8350;52.316;10.530;2023-05-10T13:37:34;18.30;1.00
16479;DHT22;8350;52.316;10.530;2023-05-10T13:40:03;18.20;1.00
16479;DHT22;8350;52.316;10.530;2023-05-10T13:42:31;18.20;1.00
16479;DHT22;8350;52.316;10.530;2023-05-10T13:44:59;18.40;1.00
16479;DHT22;8350;52.316;10.530;2023-05-10T13:47:26;18.50;1.00
16479;DHT22;8350;52.316;10.530;2023-05-10T13:49:55;18.60;1.00
16479;DHT22;8350;52.316;10.530;2023-05-10T13:52:24;18.70;1.00
16479;DHT22;8350;52.316;10.530;2023-05-10T13:54:50;18.60;1.00
16479;DHT22;8350;52.316;10.530;2023-05-10T13:57:20;18.60;1.00
16479;DHT22;8350;52.316;10.530;2023-05-10T13:59:47;18.60;1.00
16479;DHT22;8350;52.316;10.530;2023-05-10T14:02:14;18.50;1.00
16479;DHT22;8350;52.316;10.530;2023-05-10T14:04:41;18.70;1.00
16479;DHT22;8350;52.316;10.530;2023-05-10T14:07:09;18.50;1.00
16479;DHT22;8350;52.316;10.530;2023-05-10T14:09:37;18.40;1.00
16479;DHT22;8350;52.316;10.530;2023-05-10T14:12:04;18.40;1.00
16479;DHT22;8350;52.316;10.530;2023-05-10T14:14:31;18.40;1.00
16479;DHT22;8350;52.316;10.530;2023-05-10T14:16:58;18.50;1.00
16479;DHT22;8350;52.316;10.530;2023-05-10T14:19:25;18.70;1.00
16479;DHT22;8350;52.316;10.530;2023-05-10T14:21:56;18.70;1.00
16479;DHT22;8350;52.316;10.530;2023-05-10T14:24:25;18.80;1.00
16479;DHT22;8350;52.316;10.530;2023-05-10T14:26:52;18.80;1.00
16479;DHT22;8350;52.316;10.530;2023-05-10T14:29:19;18.80;1.00
16479;DHT22;8350;52.316;10.530;2023-05-10T14:31:49;18.80;1.00
16479;DHT22;8350;52.316;10.530;2023-05-10T14:34:16;18.80;1.00
16479;DHT22;8350;52.316;10.530;2023-05-10T14:36:43;18.80;1.00
16479;DHT22;8350;52.316;10.530;2023-05-10T14:39:10;18.90;1.00
16479;DHT22;8350;52.316;10.530;2023-05-10T14:41:39;18.90;1.00
16479;DHT22;8350;52.316;10.530;2023-05-10T14:44:08;19.00;1.00
16479;DHT22;8350;52.316;10.530;2023-05-10T14:46:35;19.00;1.00
16479;DHT22;8350;52.316;10.530;2023-05-10T14:49:02;18.80;99.90
16479;DHT22;8350;52.316;10.530;2023-05-10T14:51:29;18.70;1.00
16479;DHT22;8350;52.316;10.530;2023-05-10T14:53:57;18.60;1.00
16479;DHT22;8350;52.316;10.530;2023-05-10T14:56:24;18.60;99.90
16479;DHT22;8350;52.316;10.530;2023-05-10T14:58:52;18.60;99.90
16479;DHT22;8350;52.316;10.530;2023-05-10T15:01:19;18.60;99.90
16479;DHT22;8350;52.316;10.530;2023-05-10T15:03:46;18.60;1.00
16479;DHT22;8350;52.316;10.530;2023-05-10T15:06:14;18.60;99.90
16479;DHT22;8350;52.316;10.530;2023-05-10T15:08:41;18.70;1.00
16479;DHT22;8350;52.316;10.530;2023-05-10T15:11:08;18.80;1.00
16479;DHT22;8350;52.316;10.530;2023-05-10T15:13:35;18.70;1.00
16479;DHT22;8350;52.316;10.530;2023-05-10T15:16:04;18.80;1.00
16479;DHT22;8350;52.316;10.530;2023-05-10T15:18:31;18.80;1.00
16479;DHT22;8350;52.316;10.530;2023-05-10T15:20:58;18.80;1.00
16479;DHT22;8350;52.316;10.530;2023-05-10T15:23:25;18.90;1.00
16479;DHT22;8350;52.316;10.530;2023-05-10T15:25:52;18.90;1.00
16479;DHT22;8350;52.316;10.530;2023-05-10T15:28:24;18.90;1.00
16479;DHT22;8350;52.316;10.530;2023-05-10T15:30:53;18.90;1.00
16479;DHT22;8350;52.316;10.530;2023-05-10T15:33:21;18.90;99.90
16479;DHT22;8350;52.316;10.530;2023-05-10T15:35:51;18.80;1.00
16479;DHT22;8350;52.316;10.530;2023-05-10T15:38:19;18.80;1.00
16479;DHT22;8350;52.316;10.530;2023-05-10T15:40:46;18.90;99.90
16479;DHT22;8350;52.316;10.530;2023-05-10T15:43:12;19.00;1.00
16479;DHT22;8350;52.316;10.530;2023-05-10T15:45:39;19.00;1.00
16479;DHT22;8350;52.316;10.530;2023-05-10T15:48:06;19.10;1.00
16479;DHT22;8350;52.316;10.530;2023-05-10T15:50:35;19.20;99.90